createdAt,value
2018-08-18T00:00:41.834Z,18.48
2018-08-18T00:01:41.851Z,18.42
2018-08-18T00:02:41.867Z,18.48
2018-08-18T00:03:41.882Z,18.44
2018-08-18T00:04:41.941Z,18.33
2018-08-18T00:05:41.914Z,18.41
2018-08-18T00:06:41.933Z,18.33
2018-08-18T00:07:41.944Z,18.32
2018-08-18T00:08:41.971Z,18.30
2018-08-18T00:09:41.977Z,18.36
2018-08-18T00:10:41.992Z,18.33
2018-08-18T00:11:42.008Z,18.36
2018-08-18T00:12:42.025Z,18.29
2018-08-18T00:13:42.036Z,18.27
2018-08-18T00:14:42.053Z,18.29
2018-08-18T00:15:42.069Z,18.17
2018-08-18T00:16:42.085Z,18.17
2018-08-18T00:17:42.098Z,18.20
2018-08-18T00:18:42.119Z,18.14
2018-08-18T00:19:42.131Z,18.11
2018-08-18T00:20:42.145Z,18.12
2018-08-18T00:21:42.164Z,18.03
2018-08-18T00:22:42.178Z,18.11
2018-08-18T00:23:42.192Z,18.02
2018-08-18T00:24:42.207Z,18.05
2018-08-18T00:25:42.223Z,17.95
2018-08-18T00:26:42.238Z,17.93
2018-08-18T00:27:42.255Z,18.03
2018-08-18T00:28:42.271Z,17.79
2018-08-18T00:29:42.284Z,17.84
2018-08-18T00:30:42.300Z,17.82
2018-08-18T00:31:42.315Z,17.95
2018-08-18T00:32:42.330Z,17.84
2018-08-18T00:33:42.347Z,17.82
2018-08-18T00:34:42.362Z,17.77
2018-08-18T00:35:42.377Z,17.75
2018-08-18T00:36:42.392Z,17.79
2018-08-18T00:37:42.440Z,17.71
2018-08-18T00:38:42.425Z,17.70
2018-08-18T00:39:42.439Z,17.68
2018-08-18T00:40:42.456Z,17.66
2018-08-18T00:41:42.469Z,17.70
2018-08-18T00:42:42.485Z,17.71
2018-08-18T00:43:42.505Z,17.70
2018-08-18T00:44:42.523Z,17.64
2018-08-18T00:45:42.531Z,17.68
2018-08-18T00:46:42.547Z,17.72
2018-08-18T00:47:42.562Z,17.66
2018-08-18T00:48:42.582Z,17.68
2018-08-18T00:49:42.596Z,17.58
2018-08-18T00:50:42.608Z,17.58
2018-08-18T00:51:42.626Z,17.59
2018-08-18T00:52:42.638Z,17.54
2018-08-18T00:53:42.654Z,17.55
2018-08-18T00:54:42.672Z,17.46
2018-08-18T00:55:42.689Z,17.48
2018-08-18T00:56:42.704Z,17.44
2018-08-18T00:57:42.714Z,17.48
2018-08-18T00:58:42.731Z,17.46
2018-08-18T00:59:42.747Z,17.37
2018-08-18T01:00:42.765Z,17.33
2018-08-18T01:01:42.776Z,17.38
2018-08-18T01:02:42.803Z,17.40
2018-08-18T01:03:43.188Z,17.38
2018-08-18T01:04:42.821Z,17.37
2018-08-18T01:05:42.840Z,17.34
2018-08-18T01:06:42.854Z,17.31
2018-08-18T01:07:42.873Z,17.37
2018-08-18T01:08:42.885Z,17.34
2018-08-18T01:09:42.898Z,17.41
2018-08-18T01:10:42.919Z,17.38
2018-08-18T01:11:43.094Z,17.34
2018-08-18T01:12:43.003Z,17.25
2018-08-18T01:13:43.055Z,17.21
2018-08-18T01:14:43.000Z,17.22
2018-08-18T01:15:43.008Z,17.06
2018-08-18T01:16:43.008Z,17.16
2018-08-18T01:17:43.023Z,17.21
2018-08-18T01:18:43.038Z,17.11
2018-08-18T01:19:43.054Z,17.08
2018-08-18T01:20:43.069Z,17.08
2018-08-18T01:21:43.084Z,17.07
2018-08-18T01:22:43.134Z,17.07
2018-08-18T01:23:43.117Z,17.08
2018-08-18T01:24:43.151Z,17.07
2018-08-18T01:25:43.152Z,17.07
2018-08-18T01:26:43.167Z,17.07
2018-08-18T01:27:43.177Z,17.22
2018-08-18T01:28:43.192Z,17.28
2018-08-18T01:29:43.207Z,17.38
2018-08-18T01:30:43.222Z,17.36
2018-08-18T01:31:43.237Z,17.38
2018-08-18T01:32:43.252Z,17.40
2018-08-18T01:33:43.275Z,17.36
2018-08-18T01:34:43.286Z,17.41
2018-08-18T01:35:43.298Z,17.38
2018-08-18T01:36:43.314Z,17.37
2018-08-18T01:37:43.329Z,17.36
2018-08-18T01:38:43.345Z,17.36
2018-08-18T01:39:43.361Z,17.33
2018-08-18T01:40:43.375Z,17.28
2018-08-18T01:41:43.395Z,17.30
2018-08-18T01:42:43.406Z,17.26
2018-08-18T01:43:43.431Z,17.16
2018-08-18T01:44:43.435Z,17.19
2018-08-18T01:45:43.451Z,17.30
2018-08-18T01:46:43.466Z,17.18
2018-08-18T01:47:43.482Z,17.23
2018-08-18T01:48:43.497Z,17.26
2018-08-18T01:49:43.513Z,17.21
2018-08-18T01:50:43.528Z,17.19
2018-08-18T01:51:43.543Z,17.16
2018-08-18T01:52:43.557Z,17.06
2018-08-18T01:53:43.572Z,17.04
2018-08-18T01:54:43.589Z,17.08
2018-08-18T01:55:43.605Z,17.00
2018-08-18T01:56:43.619Z,17.07
2018-08-18T01:57:43.635Z,16.98
2018-08-18T01:58:43.660Z,17.08
2018-08-18T01:59:43.665Z,17.03
2018-08-18T02:00:43.680Z,17.03
2018-08-18T02:01:43.694Z,16.98
2018-08-18T02:02:43.712Z,16.96
2018-08-18T02:03:43.727Z,16.89
2018-08-18T02:04:43.741Z,16.89
2018-08-18T02:05:43.757Z,16.82
2018-08-18T02:06:43.775Z,16.86
2018-08-18T02:07:43.786Z,16.96
2018-08-18T02:08:43.802Z,16.91
2018-08-18T02:09:43.817Z,16.97
2018-08-18T02:10:43.929Z,16.94
2018-08-18T02:11:43.848Z,16.78
2018-08-18T02:12:43.866Z,16.81
2018-08-18T02:13:43.876Z,16.82
2018-08-18T02:14:43.894Z,16.88
2018-08-18T02:15:43.907Z,16.83
2018-08-18T02:16:43.925Z,16.82
2018-08-18T02:17:43.941Z,16.85
2018-08-18T02:18:43.956Z,16.79
2018-08-18T02:19:43.967Z,16.76
2018-08-18T02:20:43.992Z,16.79
2018-08-18T02:21:43.998Z,16.78
2018-08-18T02:22:44.014Z,16.67
2018-08-18T02:23:44.031Z,16.66
2018-08-18T02:24:44.043Z,16.68
2018-08-18T02:25:44.064Z,16.71
2018-08-18T02:26:44.078Z,16.79
2018-08-18T02:27:44.094Z,16.67
2018-08-18T02:28:44.105Z,16.64
2018-08-18T02:29:44.119Z,16.64
2018-08-18T02:30:44.236Z,16.68
2018-08-18T02:31:44.150Z,16.68
2018-08-18T02:32:44.166Z,16.67
2018-08-18T02:33:44.183Z,16.63
2018-08-18T02:34:44.201Z,16.63
2018-08-18T02:35:44.214Z,16.68
2018-08-18T02:36:44.233Z,16.70
2018-08-18T02:37:44.240Z,16.66
2018-08-18T02:38:44.257Z,16.67
2018-08-18T02:39:44.271Z,16.67
2018-08-18T02:40:44.286Z,16.75
2018-08-18T02:41:44.301Z,16.73
2018-08-18T02:42:44.322Z,16.71
2018-08-18T02:43:44.333Z,16.66
2018-08-18T02:44:44.346Z,16.68
2018-08-18T02:45:44.361Z,16.68
2018-08-18T02:46:44.380Z,16.68
2018-08-18T02:47:44.399Z,16.67
2018-08-18T02:48:44.407Z,16.63
2018-08-18T02:49:44.422Z,16.64
2018-08-18T02:50:44.439Z,16.64
2018-08-18T02:51:44.454Z,16.58
2018-08-18T02:52:44.468Z,16.60
2018-08-18T02:53:44.483Z,16.63
2018-08-18T02:54:44.502Z,16.48
2018-08-18T02:55:44.512Z,16.50
2018-08-18T02:56:44.530Z,16.57
2018-08-18T02:57:44.547Z,16.49
2018-08-18T02:58:44.559Z,16.57
2018-08-18T02:59:44.576Z,16.52
2018-08-18T03:00:44.590Z,16.52
2018-08-18T03:01:44.604Z,16.57
2018-08-18T03:02:44.617Z,16.49
2018-08-18T03:03:44.637Z,16.56
2018-08-18T03:04:44.651Z,16.58
2018-08-18T03:05:44.669Z,16.53
2018-08-18T03:06:44.679Z,16.50
2018-08-18T03:07:44.786Z,16.48
2018-08-18T03:08:44.711Z,16.46
2018-08-18T03:09:44.723Z,16.52
2018-08-18T03:10:44.739Z,16.42
2018-08-18T03:11:44.753Z,16.48
2018-08-18T03:12:44.769Z,16.49
2018-08-18T03:13:44.783Z,16.50
2018-08-18T03:14:44.800Z,16.57
2018-08-18T03:15:44.813Z,16.66
2018-08-18T03:16:44.827Z,16.45
2018-08-18T03:17:44.844Z,16.45
2018-08-18T03:18:44.859Z,16.49
2018-08-18T03:19:44.877Z,16.45
2018-08-18T03:20:44.894Z,16.46
2018-08-18T03:21:44.906Z,16.48
2018-08-18T03:22:44.920Z,16.46
2018-08-18T03:23:44.940Z,16.39
2018-08-18T03:24:44.950Z,16.35
2018-08-18T03:25:44.963Z,16.17
2018-08-18T03:26:44.979Z,16.21
2018-08-18T03:27:44.996Z,16.25
2018-08-18T03:28:45.014Z,16.27
2018-08-18T03:29:45.025Z,16.25
2018-08-18T03:30:45.039Z,16.30
2018-08-18T03:31:45.055Z,16.39
2018-08-18T03:32:45.068Z,16.38
2018-08-18T03:33:45.083Z,16.31
2018-08-18T03:34:45.103Z,16.45
2018-08-18T03:35:45.118Z,16.33
2018-08-18T03:36:45.129Z,16.38
2018-08-18T03:37:45.144Z,16.38
2018-08-18T03:38:45.158Z,16.35
2018-08-18T03:39:45.173Z,16.31
2018-08-18T03:40:45.188Z,16.33
2018-08-18T03:41:45.203Z,16.27
2018-08-18T03:42:45.225Z,16.23
2018-08-18T03:43:45.233Z,16.08
2018-08-18T03:44:45.248Z,16.07
2018-08-18T03:45:45.261Z,16.09
2018-08-18T03:46:45.279Z,16.02
2018-08-18T03:47:45.295Z,16.00
2018-08-18T03:48:45.307Z,16.00
2018-08-18T03:49:45.326Z,16.00
2018-08-18T03:50:45.338Z,16.05
2018-08-18T03:51:45.353Z,16.05
2018-08-18T03:52:45.367Z,16.02
2018-08-18T03:53:45.382Z,16.01
2018-08-18T03:54:45.402Z,16.04
2018-08-18T03:55:45.414Z,16.04
2018-08-18T03:56:45.427Z,15.94
2018-08-18T03:57:45.443Z,16.01
2018-08-18T03:58:45.459Z,15.87
2018-08-18T03:59:45.477Z,15.87
2018-08-18T04:00:45.495Z,15.80
2018-08-18T04:01:45.537Z,15.78
2018-08-18T04:02:45.549Z,15.84
2018-08-18T04:03:45.540Z,15.78
2018-08-18T04:04:45.552Z,15.83
2018-08-18T04:05:45.566Z,15.75
2018-08-18T04:06:45.579Z,15.82
2018-08-18T04:07:45.594Z,15.68
2018-08-18T04:08:45.611Z,15.69
2018-08-18T04:09:45.624Z,15.76
2018-08-18T04:10:45.638Z,15.76
2018-08-18T04:11:45.656Z,15.83
2018-08-18T04:12:45.668Z,15.76
2018-08-18T04:13:45.682Z,15.82
2018-08-18T04:14:45.699Z,15.89
2018-08-18T04:15:45.713Z,15.83
2018-08-18T04:16:45.731Z,15.87
2018-08-18T04:17:45.742Z,15.92
2018-08-18T04:18:45.801Z,15.90
2018-08-18T04:19:45.784Z,15.82
2018-08-18T04:20:45.788Z,15.89
2018-08-18T04:21:45.802Z,15.89
2018-08-18T04:22:45.818Z,15.83
2018-08-18T04:23:45.832Z,15.78
2018-08-18T04:24:45.846Z,15.83
2018-08-18T04:25:45.864Z,15.80
2018-08-18T04:26:45.878Z,15.78
2018-08-18T04:27:45.896Z,15.74
2018-08-18T04:28:45.919Z,15.69
2018-08-18T04:29:45.925Z,15.74
2018-08-18T04:30:45.952Z,15.74
2018-08-18T04:31:45.955Z,15.74
2018-08-18T04:32:45.966Z,15.75
2018-08-18T04:33:45.980Z,15.72
2018-08-18T04:34:45.997Z,15.64
2018-08-18T04:35:46.016Z,15.60
2018-08-18T04:36:46.026Z,15.60
2018-08-18T04:37:46.047Z,15.59
2018-08-18T04:38:46.056Z,15.56
2018-08-18T04:39:46.077Z,15.50
2018-08-18T04:40:46.087Z,15.50
2018-08-18T04:41:46.099Z,15.50
2018-08-18T04:42:46.120Z,15.53
2018-08-18T04:43:46.172Z,15.50
2018-08-18T04:44:46.147Z,15.46
2018-08-18T04:45:46.159Z,15.50
2018-08-18T04:46:46.174Z,15.50
2018-08-18T04:47:46.191Z,15.46
2018-08-18T04:48:46.204Z,15.39
2018-08-18T04:49:46.219Z,15.44
2018-08-18T04:50:46.235Z,15.47
2018-08-18T04:51:46.249Z,15.43
2018-08-18T04:52:46.266Z,15.43
2018-08-18T04:53:46.282Z,15.43
2018-08-18T04:54:46.296Z,15.39
2018-08-18T04:55:46.316Z,15.34
2018-08-18T04:56:46.332Z,15.34
2018-08-18T04:57:46.341Z,15.34
2018-08-18T04:58:46.354Z,15.43
2018-08-18T04:59:46.367Z,15.31
2018-08-18T05:00:46.381Z,15.38
2018-08-18T05:01:46.401Z,15.28
2018-08-18T05:02:46.412Z,15.46
2018-08-18T05:03:46.428Z,15.43
2018-08-18T05:04:46.440Z,15.51
2018-08-18T05:05:46.455Z,15.46
2018-08-18T05:06:46.474Z,15.43
2018-08-18T05:07:46.487Z,15.43
2018-08-18T05:08:46.547Z,15.43
2018-08-18T05:09:46.517Z,15.38
2018-08-18T05:10:46.530Z,15.51
2018-08-18T05:11:46.654Z,15.49
2018-08-18T05:12:46.558Z,15.47
2018-08-18T05:13:46.573Z,15.50
2018-08-18T05:14:46.590Z,15.57
2018-08-18T05:15:46.607Z,15.60
2018-08-18T05:16:46.617Z,15.54
2018-08-18T05:17:46.635Z,15.51
2018-08-18T05:18:46.699Z,15.65
2018-08-18T05:19:46.663Z,15.56
2018-08-18T05:20:46.680Z,15.65
2018-08-18T05:21:46.692Z,15.56
2018-08-18T05:22:46.710Z,15.67
2018-08-18T05:23:46.722Z,15.65
2018-08-18T05:24:46.735Z,15.65
2018-08-18T05:25:46.751Z,15.75
2018-08-18T05:26:46.767Z,15.76
2018-08-18T05:27:46.785Z,15.74
2018-08-18T05:28:46.794Z,15.76
2018-08-18T05:29:46.810Z,15.69
2018-08-18T05:30:46.825Z,15.75
2018-08-18T05:31:46.843Z,15.78
2018-08-18T05:32:46.853Z,15.80
2018-08-18T05:33:46.873Z,15.78
2018-08-18T05:34:46.884Z,15.83
2018-08-18T05:35:46.899Z,15.84
2018-08-18T05:36:46.913Z,15.94
2018-08-18T05:37:46.927Z,15.94
2018-08-18T05:38:46.944Z,16.01
2018-08-18T05:39:46.958Z,16.01
2018-08-18T05:40:46.972Z,16.04
2018-08-18T05:41:46.987Z,16.07
2018-08-18T05:42:47.003Z,16.05
2018-08-18T05:43:47.023Z,16.14
2018-08-18T05:44:47.032Z,16.05
2018-08-18T05:45:47.046Z,16.24
2018-08-18T05:46:47.064Z,16.24
2018-08-18T05:47:47.078Z,16.25
2018-08-18T05:48:47.094Z,16.21
2018-08-18T05:49:47.106Z,16.39
2018-08-18T05:50:47.121Z,16.43
2018-08-18T05:51:47.137Z,16.41
2018-08-18T05:52:47.151Z,16.43
2018-08-18T05:53:47.167Z,16.52
2018-08-18T05:54:47.181Z,16.53
2018-08-18T05:55:47.199Z,16.58
2018-08-18T05:56:47.210Z,16.66
2018-08-18T05:57:47.225Z,16.75
2018-08-18T05:58:47.244Z,16.83
2018-08-18T05:59:47.291Z,16.78
2018-08-18T06:00:47.273Z,16.82
2018-08-18T06:01:47.291Z,16.88
2018-08-18T06:02:47.300Z,16.88
2018-08-18T06:03:47.308Z,16.98
2018-08-18T06:04:47.322Z,16.94
2018-08-18T06:05:47.428Z,16.93
2018-08-18T06:06:47.353Z,16.91
2018-08-18T06:07:47.390Z,16.93
2018-08-18T06:08:47.383Z,16.91
2018-08-18T06:09:47.396Z,16.93
2018-08-18T06:10:47.412Z,16.96
2018-08-18T06:11:47.427Z,16.94
2018-08-18T06:12:47.442Z,16.98
2018-08-18T06:13:47.458Z,16.97
2018-08-18T06:14:47.472Z,16.93
2018-08-18T06:15:47.537Z,16.97
2018-08-18T06:16:47.503Z,17.03
2018-08-18T06:17:47.523Z,17.06
2018-08-18T06:18:47.533Z,17.06
2018-08-18T06:19:47.552Z,17.21
2018-08-18T06:20:47.568Z,17.21
2018-08-18T06:21:47.580Z,17.31
2018-08-18T06:22:47.592Z,17.37
2018-08-18T06:23:47.617Z,17.40
2018-08-18T06:24:47.624Z,17.34
2018-08-18T06:25:47.640Z,17.49
2018-08-18T06:26:47.654Z,17.43
2018-08-18T06:27:47.689Z,17.48
2018-08-18T06:28:47.683Z,17.46
2018-08-18T06:29:47.698Z,17.58
2018-08-18T06:30:47.718Z,17.62
2018-08-18T06:31:47.730Z,17.71
2018-08-18T06:32:47.745Z,17.72
2018-08-18T06:33:47.759Z,17.75
2018-08-18T06:34:47.913Z,17.70
2018-08-18T06:35:47.790Z,17.75
2018-08-18T06:36:47.804Z,17.66
2018-08-18T06:37:47.824Z,17.74
2018-08-18T06:38:47.834Z,17.86
2018-08-18T06:39:47.851Z,17.86
2018-08-18T06:40:47.866Z,17.84
2018-08-18T06:41:47.991Z,17.92
2018-08-18T06:42:47.895Z,17.96
2018-08-18T06:43:47.912Z,17.93
2018-08-18T06:44:47.925Z,17.93
2018-08-18T06:45:47.941Z,17.90
2018-08-18T06:46:47.959Z,18.12
2018-08-18T06:47:47.972Z,18.15
2018-08-18T06:48:47.986Z,18.17
2018-08-18T06:49:48.006Z,18.15
2018-08-18T06:50:48.016Z,18.23
2018-08-18T06:51:48.032Z,18.20
2018-08-18T06:52:48.047Z,18.27
2018-08-18T06:53:48.063Z,18.30
2018-08-18T06:54:48.143Z,18.27
2018-08-18T06:55:48.101Z,18.32
2018-08-18T06:56:48.110Z,18.29
2018-08-18T06:57:48.123Z,18.29
2018-08-18T06:58:48.139Z,18.36
2018-08-18T06:59:48.160Z,18.35
2018-08-18T07:00:48.171Z,18.29
2018-08-18T07:01:48.189Z,18.35
2018-08-18T07:02:48.202Z,18.36
2018-08-18T07:03:48.228Z,18.45
2018-08-18T07:04:48.230Z,18.48
2018-08-18T07:05:48.263Z,18.50
2018-08-18T07:06:48.264Z,18.52
2018-08-18T07:07:48.277Z,18.55
2018-08-18T07:08:48.291Z,18.58
2018-08-18T07:09:48.307Z,18.60
2018-08-18T07:10:48.324Z,18.70
2018-08-18T07:11:48.340Z,18.63
2018-08-18T07:12:48.360Z,18.72
2018-08-18T07:13:48.378Z,18.73
2018-08-18T07:14:48.398Z,18.73
2018-08-18T07:15:48.414Z,18.73
2018-08-18T07:16:48.468Z,18.70
2018-08-18T07:17:48.451Z,18.63
2018-08-18T07:18:48.444Z,18.69
2018-08-18T07:19:48.462Z,18.70
2018-08-18T07:20:48.475Z,18.69
2018-08-18T07:21:48.492Z,18.76
2018-08-18T07:22:48.507Z,18.92
2018-08-18T07:23:48.523Z,19.00
2018-08-18T07:24:48.537Z,18.99
2018-08-18T07:25:48.553Z,19.04
2018-08-18T07:26:48.603Z,19.11
2018-08-18T07:27:48.582Z,19.02
2018-08-18T07:28:48.742Z,19.11
2018-08-18T07:29:48.619Z,19.08
2018-08-18T07:30:48.658Z,19.23
2018-08-18T07:31:48.643Z,19.21
2018-08-18T07:32:48.659Z,19.13
2018-08-18T07:33:48.690Z,19.14
2018-08-18T07:34:48.689Z,19.18
2018-08-18T07:35:48.705Z,19.23
2018-08-18T07:36:48.718Z,19.22
2018-08-18T07:37:48.736Z,19.19
2018-08-18T07:38:48.757Z,19.23
2018-08-18T07:39:48.767Z,19.18
2018-08-18T07:40:48.788Z,19.19
2018-08-18T07:41:48.798Z,19.21
2018-08-18T07:42:48.813Z,19.29
2018-08-18T07:43:48.828Z,19.25
2018-08-18T07:44:48.841Z,19.29
2018-08-18T07:45:48.857Z,19.37
2018-08-18T07:46:48.875Z,19.46
2018-08-18T07:47:48.888Z,19.46
2018-08-18T07:48:48.903Z,19.51
2018-08-18T07:49:48.920Z,19.50
2018-08-18T07:50:48.934Z,19.51
2018-08-18T07:51:48.963Z,19.56
2018-08-18T07:52:48.964Z,19.50
2018-08-18T07:53:48.981Z,19.54
2018-08-18T07:54:49.003Z,19.63
2018-08-18T07:55:49.010Z,19.65
2018-08-18T07:56:49.025Z,19.73
2018-08-18T07:57:49.042Z,19.78
2018-08-18T07:58:49.057Z,19.83
2018-08-18T07:59:49.142Z,19.91
2018-08-18T08:00:49.089Z,19.96
2018-08-18T08:01:49.103Z,19.96
2018-08-18T08:02:49.118Z,19.91
2018-08-18T08:03:49.137Z,19.88
2018-08-18T08:04:49.149Z,19.95
2018-08-18T08:05:49.296Z,20.03
2018-08-18T08:06:49.180Z,20.03
2018-08-18T08:07:49.195Z,20.14
2018-08-18T08:08:49.210Z,20.16
2018-08-18T08:09:49.228Z,20.14
2018-08-18T08:10:49.242Z,20.24
2018-08-18T08:11:49.260Z,20.28
2018-08-18T08:12:49.286Z,20.31
2018-08-18T08:13:49.288Z,20.35
2018-08-18T08:14:49.306Z,20.36
2018-08-18T08:15:49.318Z,20.38
2018-08-18T08:16:49.336Z,20.47
2018-08-18T08:17:49.371Z,20.38
2018-08-18T08:18:49.367Z,20.41
2018-08-18T08:19:49.380Z,20.50
2018-08-18T08:20:49.397Z,20.50
2018-08-18T08:21:49.411Z,20.55
2018-08-18T08:22:49.429Z,20.43
2018-08-18T08:23:49.447Z,20.58
2018-08-18T08:24:49.462Z,20.52
2018-08-18T08:25:49.473Z,20.57
2018-08-18T08:26:49.494Z,20.61
2018-08-18T08:27:49.505Z,20.64
2018-08-18T08:28:49.520Z,20.70
2018-08-18T08:29:49.535Z,20.66
2018-08-18T08:30:49.552Z,20.74
2018-08-18T08:31:49.587Z,20.73
2018-08-18T08:32:49.581Z,20.76
2018-08-18T08:33:49.602Z,20.73
2018-08-18T08:34:49.615Z,20.74
2018-08-18T08:35:49.632Z,20.73
2018-08-18T08:36:49.670Z,20.66
2018-08-18T08:37:49.666Z,20.73
2018-08-18T08:38:49.683Z,20.76
2018-08-18T08:39:49.693Z,20.87
2018-08-18T08:40:49.711Z,20.85
2018-08-18T08:41:49.725Z,20.67
2018-08-18T08:42:49.754Z,20.57
2018-08-18T08:43:49.758Z,20.50
2018-08-18T08:44:49.769Z,20.58
2018-08-18T08:45:49.784Z,20.72
2018-08-18T08:46:49.801Z,20.73
2018-08-18T08:47:49.815Z,20.85
2018-08-18T08:48:49.831Z,20.94
2018-08-18T08:49:49.855Z,21.03
2018-08-18T08:50:49.864Z,21.12
2018-08-18T08:51:49.883Z,21.19
2018-08-18T08:52:49.897Z,21.25
2018-08-18T08:53:49.909Z,21.37
2018-08-18T08:54:49.932Z,21.27
2018-08-18T08:55:49.941Z,21.31
2018-08-18T08:56:49.967Z,21.28
2018-08-18T08:57:49.979Z,21.32
2018-08-18T08:58:50.046Z,21.47
2018-08-18T08:59:50.004Z,21.38
2018-08-18T09:00:50.019Z,21.35
2018-08-18T09:01:50.034Z,21.34
2018-08-18T09:02:50.054Z,21.40
2018-08-18T09:03:50.067Z,21.37
2018-08-18T09:04:50.082Z,21.46
2018-08-18T09:05:50.097Z,21.38
2018-08-18T09:06:50.115Z,21.52
2018-08-18T09:07:50.134Z,21.54
2018-08-18T09:08:50.145Z,21.61
2018-08-18T09:09:50.161Z,21.59
2018-08-18T09:10:50.184Z,21.69
2018-08-18T09:11:50.195Z,21.71
2018-08-18T09:12:50.220Z,21.75
2018-08-18T09:13:50.224Z,21.75
2018-08-18T09:14:50.240Z,21.61
2018-08-18T09:15:50.256Z,21.61
2018-08-18T09:16:50.272Z,21.58
2018-08-18T09:17:50.287Z,21.69
2018-08-18T09:18:50.305Z,21.79
2018-08-18T09:19:50.334Z,21.72
2018-08-18T09:20:50.337Z,21.64
2018-08-18T09:21:50.351Z,21.71
2018-08-18T09:22:50.366Z,21.75
2018-08-18T09:23:50.382Z,21.82
2018-08-18T09:24:50.400Z,21.86
2018-08-18T09:25:50.433Z,21.83
2018-08-18T09:26:50.454Z,21.99
2018-08-18T09:27:50.445Z,22.00
2018-08-18T09:28:50.464Z,22.06
2018-08-18T09:29:50.476Z,22.05
2018-08-18T09:30:50.496Z,22.09
2018-08-18T09:31:50.512Z,22.03
2018-08-18T09:32:50.524Z,22.03
2018-08-18T09:33:50.540Z,22.05
2018-08-18T09:34:50.555Z,22.05
2018-08-18T09:35:50.573Z,22.09
2018-08-18T09:36:50.605Z,22.05
2018-08-18T09:37:50.612Z,22.20
2018-08-18T09:38:50.631Z,22.27
2018-08-18T09:39:50.635Z,22.17
2018-08-18T09:40:50.653Z,22.10
2018-08-18T09:41:50.667Z,22.09
2018-08-18T09:42:50.686Z,22.17
2018-08-18T09:43:50.699Z,22.22
2018-08-18T09:44:50.717Z,22.31
2018-08-18T09:45:50.728Z,22.28
2018-08-18T09:46:50.752Z,22.21
2018-08-18T09:47:50.764Z,22.22
2018-08-18T09:48:50.777Z,22.12
2018-08-18T09:49:50.793Z,22.17
2018-08-18T09:50:50.812Z,22.31
2018-08-18T09:51:50.828Z,22.35
2018-08-18T09:52:50.847Z,22.52
2018-08-18T09:53:50.859Z,22.49
2018-08-18T09:54:50.876Z,22.57
2018-08-18T09:55:50.891Z,22.52
2018-08-18T09:56:50.908Z,22.55
2018-08-18T09:57:50.924Z,22.58
2018-08-18T09:58:50.939Z,22.51
2018-08-18T09:59:50.956Z,22.55
2018-08-18T10:00:50.970Z,22.58
2018-08-18T10:01:50.987Z,22.67
2018-08-18T10:02:51.002Z,22.83
2018-08-18T10:03:51.018Z,22.85
2018-08-18T10:04:51.033Z,22.88
2018-08-18T10:05:51.050Z,22.97
2018-08-18T10:06:51.075Z,23.05
2018-08-18T10:07:51.085Z,23.02
2018-08-18T10:08:51.100Z,22.98
2018-08-18T10:09:51.117Z,22.91
2018-08-18T10:10:51.133Z,22.94
2018-08-18T10:11:51.147Z,23.02
2018-08-18T10:12:51.163Z,23.07
2018-08-18T10:13:51.180Z,23.20
2018-08-18T10:14:51.197Z,23.22
2018-08-18T10:15:51.211Z,23.33
2018-08-18T10:16:51.226Z,23.32
2018-08-18T10:17:51.244Z,23.27
2018-08-18T10:18:51.259Z,23.22
2018-08-18T10:19:51.279Z,23.36
2018-08-18T10:20:51.291Z,23.54
2018-08-18T10:21:51.310Z,23.54
2018-08-18T10:22:51.326Z,23.53
2018-08-18T10:23:51.341Z,23.55
2018-08-18T10:24:51.355Z,23.51
2018-08-18T10:25:51.372Z,23.47
2018-08-18T10:26:51.388Z,23.32
2018-08-18T10:27:51.404Z,23.19
2018-08-18T10:28:51.420Z,23.09
2018-08-18T10:29:51.437Z,23.05
2018-08-18T10:30:51.454Z,23.13
2018-08-18T10:31:51.471Z,23.25
2018-08-18T10:32:51.486Z,23.42
2018-08-18T10:33:51.501Z,23.53
2018-08-18T10:34:51.535Z,23.61
2018-08-18T10:35:51.534Z,23.69
2018-08-18T10:36:51.549Z,23.50
2018-08-18T10:37:51.570Z,23.36
2018-08-18T10:38:51.596Z,23.50
2018-08-18T10:39:51.598Z,23.53
2018-08-18T10:40:51.613Z,23.54
2018-08-18T10:41:51.629Z,23.61
2018-08-18T10:42:51.646Z,23.57
2018-08-18T10:43:51.667Z,23.66
2018-08-18T10:44:51.679Z,23.54
2018-08-18T10:45:51.701Z,23.54
2018-08-18T10:46:51.712Z,23.65
2018-08-18T10:47:51.729Z,23.70
2018-08-18T10:48:51.747Z,23.84
2018-08-18T10:49:51.765Z,23.83
2018-08-18T10:50:51.776Z,23.88
2018-08-18T10:51:51.795Z,23.91
2018-08-18T10:52:51.813Z,23.88
2018-08-18T10:53:51.827Z,23.83
2018-08-18T10:54:51.843Z,23.97
2018-08-18T10:55:51.859Z,23.93
2018-08-18T10:56:51.875Z,23.87
2018-08-18T10:57:51.890Z,23.73
2018-08-18T10:58:51.908Z,23.79
2018-08-18T10:59:51.924Z,23.88
2018-08-18T11:00:51.939Z,23.87
2018-08-18T11:01:51.966Z,23.93
2018-08-18T11:02:51.974Z,23.91
2018-08-18T11:03:52.029Z,24.13
2018-08-18T11:04:52.010Z,24.05
2018-08-18T11:05:52.025Z,24.05
2018-08-18T11:06:52.042Z,23.84
2018-08-18T11:07:52.063Z,23.85
2018-08-18T11:08:52.090Z,23.85
2018-08-18T11:09:52.090Z,23.73
2018-08-18T11:10:52.105Z,23.84
2018-08-18T11:11:52.193Z,23.97
2018-08-18T11:12:52.135Z,23.98
2018-08-18T11:13:52.153Z,24.03
2018-08-18T11:14:52.172Z,23.72
2018-08-18T11:15:52.187Z,23.91
2018-08-18T11:16:52.201Z,23.91
2018-08-18T11:17:52.221Z,23.90
2018-08-18T11:18:52.250Z,23.98
2018-08-18T11:19:52.257Z,24.24
2018-08-18T11:20:52.272Z,24.30
2018-08-18T11:21:52.371Z,24.42
2018-08-18T11:22:52.302Z,24.47
2018-08-18T11:23:52.322Z,24.47
2018-08-18T11:24:52.333Z,24.58
2018-08-18T11:25:52.355Z,24.55
2018-08-18T11:26:52.367Z,24.73
2018-08-18T11:27:52.386Z,24.73
2018-08-18T11:28:52.598Z,24.85
2018-08-18T11:29:52.418Z,24.87
2018-08-18T11:30:52.433Z,24.71
2018-08-18T11:31:52.451Z,24.62
2018-08-18T11:32:52.472Z,24.62
2018-08-18T11:33:52.482Z,24.60
2018-08-18T11:34:52.498Z,24.67
2018-08-18T11:35:52.515Z,24.78
2018-08-18T11:36:52.531Z,24.80
2018-08-18T11:37:52.549Z,24.85
2018-08-18T11:38:52.570Z,24.64
2018-08-18T11:39:52.583Z,24.77
2018-08-18T11:40:52.603Z,24.83
2018-08-18T11:41:52.615Z,24.71
2018-08-18T11:42:52.634Z,24.69
2018-08-18T11:43:52.649Z,24.46
2018-08-18T11:44:52.665Z,24.45
2018-08-18T11:45:52.682Z,24.47
2018-08-18T11:46:52.724Z,24.65
2018-08-18T11:47:52.715Z,24.88
2018-08-18T11:48:52.730Z,24.96
2018-08-18T11:49:52.747Z,24.87
2018-08-18T11:50:52.764Z,25.05
2018-08-18T11:51:52.783Z,25.09
2018-08-18T11:52:52.799Z,25.03
2018-08-18T11:53:52.814Z,24.84
2018-08-18T11:54:52.831Z,24.84
2018-08-18T11:55:52.851Z,24.87
2018-08-18T11:56:52.867Z,24.87
2018-08-18T11:57:52.882Z,24.84
2018-08-18T11:58:52.905Z,24.83
2018-08-18T11:59:52.916Z,24.81
2018-08-18T12:00:52.931Z,24.98
2018-08-18T12:01:52.972Z,25.15
2018-08-18T12:02:52.966Z,25.14
2018-08-18T12:03:52.983Z,25.38
2018-08-18T12:04:53.005Z,25.40
2018-08-18T12:05:53.018Z,25.33
2018-08-18T12:06:53.034Z,25.43
2018-08-18T12:07:53.051Z,25.52
2018-08-18T12:08:53.073Z,25.52
2018-08-18T12:09:53.085Z,25.55
2018-08-18T12:10:53.229Z,25.65
2018-08-18T12:11:53.125Z,25.61
2018-08-18T12:12:53.136Z,25.79
2018-08-18T12:13:53.156Z,25.80
2018-08-18T12:14:53.180Z,25.85
2018-08-18T12:15:53.187Z,25.82
2018-08-18T12:16:53.204Z,25.94
2018-08-18T12:17:53.219Z,25.92
2018-08-18T12:18:53.241Z,26.12
2018-08-18T12:19:53.260Z,26.09
2018-08-18T12:20:53.272Z,26.12
2018-08-18T12:21:53.289Z,25.92
2018-08-18T12:22:53.304Z,25.92
2018-08-18T12:23:53.320Z,25.82
2018-08-18T12:24:53.346Z,25.88
2018-08-18T12:25:53.356Z,25.95
2018-08-18T12:26:53.374Z,25.95
2018-08-18T12:27:53.393Z,26.05
2018-08-18T12:28:53.408Z,26.15
2018-08-18T12:29:53.563Z,26.20
2018-08-18T12:30:53.444Z,26.07
2018-08-18T12:31:53.461Z,25.82
2018-08-18T12:32:53.477Z,25.47
2018-08-18T12:33:53.496Z,25.58
2018-08-18T12:34:53.515Z,25.52
2018-08-18T12:35:53.529Z,25.50
2018-08-18T12:36:53.664Z,25.61
2018-08-18T12:37:53.567Z,25.60
2018-08-18T12:38:53.589Z,25.52
2018-08-18T12:39:53.601Z,25.54
2018-08-18T12:40:53.618Z,25.72
2018-08-18T12:41:53.638Z,25.87
2018-08-18T12:42:53.654Z,25.94
2018-08-18T12:43:53.675Z,25.97
2018-08-18T12:44:53.691Z,26.07
2018-08-18T12:45:53.719Z,26.13
2018-08-18T12:46:53.729Z,26.26
2018-08-18T12:47:53.745Z,26.45
2018-08-18T12:48:53.762Z,26.50
2018-08-18T12:49:53.812Z,26.47
2018-08-18T12:50:53.800Z,26.60
2018-08-18T12:52:53.834Z,26.54
2018-08-18T12:53:53.857Z,26.62